createdAt,value
2023-03-19T00:00:43.933Z,99.90
2023-03-19T00:03:10.972Z,99.90
2023-03-19T00:05:37.964Z,99.90
2023-03-19T00:08:05.515Z,99.90
2023-03-19T00:10:32.352Z,99.90
2023-03-19T00:12:59.186Z,99.90
2023-03-19T00:15:26.000Z,99.90
2023-03-19T00:17:54.240Z,99.90
2023-03-19T00:20:22.143Z,99.90
2023-03-19T00:22:48.992Z,99.90
2023-03-19T00:25:15.894Z,99.90
2023-03-19T00:27:43.863Z,99.90
2023-03-19T00:30:11.584Z,99.90
2023-03-19T00:32:39.404Z,99.90
2023-03-19T00:35:08.224Z,99.90
2023-03-19T00:37:36.288Z,99.90
2023-03-19T00:40:04.436Z,99.90
2023-03-19T00:42:31.883Z,99.90
2023-03-19T00:44:58.846Z,99.90
2023-03-19T00:47:26.974Z,99.90
2023-03-19T00:49:53.910Z,99.90
2023-03-19T00:52:20.775Z,99.90
2023-03-19T00:54:47.589Z,99.90
2023-03-19T00:57:14.435Z,99.90
2023-03-19T00:59:41.257Z,99.90
2023-03-19T01:02:08.222Z,99.90
2023-03-19T01:04:35.403Z,99.90
2023-03-19T01:07:02.276Z,99.90
2023-03-19T01:09:29.075Z,99.90
2023-03-19T01:11:55.880Z,99.90
2023-03-19T01:14:23.027Z,99.90
2023-03-19T01:16:49.910Z,99.90
2023-03-19T01:19:16.802Z,99.90
2023-03-19T01:21:46.360Z,99.90
2023-03-19T01:24:13.666Z,99.90
2023-03-19T01:26:40.590Z,99.90
2023-03-19T01:29:08.124Z,99.90
2023-03-19T01:31:36.349Z,99.90
2023-03-19T01:34:03.985Z,99.90
2023-03-19T01:36:31.457Z,99.90
2023-03-19T01:38:58.248Z,99.90
2023-03-19T01:41:25.091Z,99.90
2023-03-19T01:43:51.927Z,99.90
2023-03-19T01:46:33.394Z,99.90
2023-03-19T01:49:07.261Z,99.90
2023-03-19T01:51:45.996Z,99.90
2023-03-19T01:54:18.394Z,99.90
2023-03-19T01:56:50.413Z,99.90
2023-03-19T01:59:31.851Z,99.90
2023-03-19T02:02:00.836Z,99.90
2023-03-19T02:04:31.631Z,99.90
2023-03-19T02:07:01.206Z,99.90
2023-03-19T02:09:29.348Z,99.90
2023-03-19T02:11:57.681Z,99.90
2023-03-19T02:14:24.894Z,99.90
2023-03-19T02:16:52.729Z,99.90
2023-03-19T02:19:42.205Z,99.90
2023-03-19T02:22:11.797Z,99.90
2023-03-19T02:25:01.792Z,99.90
2023-03-19T02:27:28.629Z,99.90
2023-03-19T02:29:55.431Z,99.90
2023-03-19T02:32:22.294Z,99.90
2023-03-19T02:34:49.295Z,99.90
2023-03-19T02:37:32.004Z,99.90
2023-03-19T02:40:16.646Z,99.90
2023-03-19T02:42:43.407Z,99.90
2023-03-19T02:45:11.533Z,99.90
2023-03-19T02:47:38.286Z,99.90
2023-03-19T02:50:06.297Z,99.90
2023-03-19T02:52:33.281Z,99.90
2023-03-19T02:55:00.205Z,99.90
2023-03-19T02:57:27.089Z,99.90
2023-03-19T02:59:53.886Z,99.90
2023-03-19T03:02:20.831Z,99.90
2023-03-19T03:04:48.808Z,99.90
2023-03-19T03:07:15.608Z,99.90
2023-03-19T03:09:42.441Z,99.90
2023-03-19T03:12:09.584Z,99.90
2023-03-19T03:14:36.421Z,99.90
2023-03-19T03:17:03.249Z,99.90
2023-03-19T03:19:30.068Z,99.90
2023-03-19T03:21:56.879Z,99.90
2023-03-19T03:24:24.226Z,99.90
2023-03-19T03:26:51.019Z,99.90
2023-03-19T03:29:18.131Z,99.90
2023-03-19T03:31:45.032Z,99.90
2023-03-19T03:34:11.984Z,99.90
2023-03-19T03:36:38.882Z,99.90
2023-03-19T03:39:05.748Z,99.90
2023-03-19T03:41:33.130Z,99.90
2023-03-19T03:43:59.936Z,99.90
2023-03-19T03:46:26.758Z,99.90
2023-03-19T03:48:53.570Z,99.90
2023-03-19T03:51:20.592Z,99.90
2023-03-19T03:53:47.469Z,99.90
2023-03-19T03:56:14.553Z,99.90
2023-03-19T03:58:41.655Z,99.90
2023-03-19T04:01:11.822Z,99.90
2023-03-19T04:03:38.638Z,99.90
2023-03-19T04:06:06.039Z,99.90
2023-03-19T04:08:32.890Z,99.90
2023-03-19T04:10:59.745Z,99.90
2023-03-19T04:13:27.598Z,99.90
2023-03-19T04:15:56.037Z,99.90
2023-03-19T04:18:22.848Z,99.90
2023-03-19T04:20:49.593Z,99.90
2023-03-19T04:23:16.752Z,99.90
2023-03-19T04:25:43.525Z,99.90
2023-03-19T04:28:10.430Z,99.90
2023-03-19T04:30:37.851Z,99.90
2023-03-19T04:33:05.077Z,99.90
2023-03-19T04:35:31.925Z,99.90
2023-03-19T04:37:58.750Z,99.90
2023-03-19T04:40:25.525Z,99.90
2023-03-19T04:42:52.357Z,99.90
2023-03-19T04:45:19.306Z,99.90
2023-03-19T04:47:46.113Z,99.90
2023-03-19T04:50:13.926Z,99.90
2023-03-19T04:52:40.737Z,99.90
2023-03-19T04:55:08.890Z,99.90
2023-03-19T04:57:35.694Z,99.90
2023-03-19T05:00:02.530Z,99.90
2023-03-19T05:02:29.297Z,99.90
2023-03-19T05:04:56.291Z,99.90
2023-03-19T05:07:23.055Z,99.90
2023-03-19T05:09:50.065Z,99.90
2023-03-19T05:12:17.005Z,99.90
2023-03-19T05:14:43.873Z,99.90
2023-03-19T05:17:11.299Z,99.90
2023-03-19T05:19:39.414Z,99.90
2023-03-19T05:22:06.382Z,99.90
2023-03-19T05:24:33.216Z,99.90
2023-03-19T05:27:00.098Z,99.90
2023-03-19T05:29:27.090Z,99.90
2023-03-19T05:31:54.181Z,99.90
2023-03-19T05:34:21.428Z,99.90
2023-03-19T05:36:48.373Z,99.90
2023-03-19T05:39:15.256Z,99.90
2023-03-19T05:41:42.040Z,99.90
2023-03-19T05:44:09.113Z,99.90
2023-03-19T05:46:36.364Z,99.90
2023-03-19T05:49:04.368Z,99.90
2023-03-19T05:51:31.493Z,99.90
2023-03-19T05:53:58.303Z,99.90
2023-03-19T05:56:25.270Z,99.90
2023-03-19T05:58:52.084Z,99.90
2023-03-19T06:01:18.971Z,99.90
2023-03-19T06:03:45.941Z,99.90
2023-03-19T06:06:12.781Z,99.90
2023-03-19T06:08:39.717Z,99.90
2023-03-19T06:11:06.811Z,99.90
2023-03-19T06:13:33.612Z,99.90
2023-03-19T06:16:01.245Z,99.90
2023-03-19T06:18:28.135Z,99.90
2023-03-19T06:20:54.962Z,99.90
2023-03-19T06:23:21.780Z,99.90
2023-03-19T06:25:48.666Z,99.90
2023-03-19T06:28:15.572Z,99.90
2023-03-19T06:30:42.456Z,99.90
2023-03-19T06:33:09.264Z,99.90
2023-03-19T06:35:36.411Z,99.90
2023-03-19T06:38:03.254Z,99.90
2023-03-19T06:40:30.083Z,99.90
2023-03-19T06:42:57.013Z,99.90
2023-03-19T06:45:23.801Z,99.90
2023-03-19T06:47:53.488Z,99.90
2023-03-19T06:50:20.545Z,99.90
2023-03-19T06:52:47.392Z,99.90
2023-03-19T06:55:14.414Z,99.90
2023-03-19T06:57:41.413Z,99.90
2023-03-19T07:00:11.469Z,99.90
2023-03-19T07:02:38.274Z,99.90
2023-03-19T07:05:05.787Z,99.90
2023-03-19T07:07:32.670Z,99.90
2023-03-19T07:09:59.533Z,99.90
2023-03-19T07:12:27.861Z,99.90
2023-03-19T07:14:58.644Z,99.90
2023-03-19T07:17:26.811Z,99.90
2023-03-19T07:19:53.666Z,99.90
2023-03-19T07:22:20.503Z,99.90
2023-03-19T07:24:47.387Z,99.90
2023-03-19T07:27:14.230Z,99.90
2023-03-19T07:29:41.067Z,99.90
2023-03-19T07:32:10.383Z,99.90
2023-03-19T07:34:37.196Z,99.90
2023-03-19T07:37:04.052Z,99.90
2023-03-19T07:39:31.010Z,99.90
2023-03-19T07:41:57.957Z,99.90
2023-03-19T07:44:24.724Z,99.90
2023-03-19T07:46:51.516Z,99.90
2023-03-19T07:49:18.293Z,99.90
2023-03-19T07:51:45.176Z,99.90
2023-03-19T07:54:11.989Z,99.90
2023-03-19T07:56:38.810Z,99.90
2023-03-19T07:59:05.847Z,99.90
2023-03-19T08:01:32.780Z,99.90
2023-03-19T08:03:59.629Z,99.90
2023-03-19T08:06:26.610Z,99.90
2023-03-19T08:08:53.425Z,99.90
2023-03-19T08:11:20.261Z,99.90
2023-03-19T08:13:47.087Z,99.90
2023-03-19T08:16:14.009Z,99.90
2023-03-19T08:18:40.984Z,99.90
2023-03-19T08:21:07.983Z,99.90
2023-03-19T08:23:35.532Z,99.90
2023-03-19T08:26:02.361Z,99.90
2023-03-19T08:28:29.189Z,99.90
2023-03-19T08:30:56.530Z,99.90
2023-03-19T08:33:23.485Z,99.90
2023-03-19T08:35:50.480Z,99.90
2023-03-19T08:38:17.381Z,99.90
2023-03-19T08:40:44.194Z,99.90
2023-03-19T08:43:11.133Z,99.90
2023-03-19T08:45:37.978Z,99.90
2023-03-19T08:48:04.787Z,99.90
2023-03-19T08:50:32.335Z,99.90
2023-03-19T08:52:59.383Z,99.90
2023-03-19T08:55:26.171Z,99.90
2023-03-19T08:57:52.956Z,99.90
2023-03-19T09:00:20.139Z,99.90
2023-03-19T09:02:47.072Z,99.90
2023-03-19T09:05:13.851Z,99.90
2023-03-19T09:07:40.667Z,99.90
2023-03-19T09:10:08.112Z,99.90
2023-03-19T09:12:34.948Z,99.90
2023-03-19T09:15:01.742Z,99.90
2023-03-19T09:17:28.648Z,99.90
2023-03-19T09:19:55.595Z,99.90
2023-03-19T09:22:22.423Z,99.90
2023-03-19T09:24:49.260Z,99.90
2023-03-19T09:27:16.127Z,99.90
2023-03-19T09:29:42.953Z,99.90
2023-03-19T09:32:09.894Z,99.90
2023-03-19T09:34:36.722Z,99.90
2023-03-19T09:37:03.532Z,99.90
2023-03-19T09:39:30.353Z,99.90
2023-03-19T09:42:16.075Z,99.90
2023-03-19T09:44:45.644Z,99.90
2023-03-19T09:47:29.709Z,99.90
2023-03-19T09:50:05.191Z,99.90
2023-03-19T09:52:50.369Z,99.90
2023-03-19T09:55:40.607Z,99.90
2023-03-19T09:58:16.319Z,99.90
2023-03-19T10:00:44.643Z,99.90
2023-03-19T10:03:35.613Z,99.90
2023-03-19T10:06:05.613Z,99.90
2023-03-19T10:09:18.501Z,99.90
2023-03-19T10:12:01.218Z,99.90
2023-03-19T10:15:14.918Z,99.90
2023-03-19T10:18:05.597Z,99.90
2023-03-19T10:20:41.214Z,99.90
2023-03-19T10:23:20.084Z,99.90
2023-03-19T10:25:47.434Z,99.90
2023-03-19T10:28:17.360Z,99.90
2023-03-19T10:30:58.295Z,99.90
2023-03-19T10:33:34.874Z,99.90
2023-03-19T10:36:06.982Z,99.90
2023-03-19T10:38:41.292Z,99.90
2023-03-19T10:41:41.348Z,99.90
2023-03-19T10:44:19.940Z,99.90
2023-03-19T10:46:47.244Z,99.90
2023-03-19T10:49:15.720Z,99.90
2023-03-19T10:51:49.002Z,99.90
2023-03-19T10:54:27.026Z,99.90
2023-03-19T10:57:00.433Z,99.90
2023-03-19T10:59:29.931Z,99.90
2023-03-19T11:02:16.182Z,99.90
2023-03-19T11:04:42.948Z,99.90
2023-03-19T11:07:18.186Z,99.90
2023-03-19T11:09:48.993Z,99.90
2023-03-19T11:12:24.499Z,99.90
2023-03-19T11:14:57.414Z,99.90
2023-03-19T11:17:38.429Z,99.90
2023-03-19T11:20:27.351Z,99.90
2023-03-19T11:22:57.414Z,99.90
2023-03-19T11:25:31.967Z,99.90
2023-03-19T11:28:14.649Z,99.90
2023-03-19T11:31:19.970Z,99.90
2023-03-19T11:34:01.906Z,99.90
2023-03-19T11:37:05.616Z,99.90
2023-03-19T11:40:10.650Z,99.90
2023-03-19T11:42:43.713Z,99.90
2023-03-19T11:45:35.492Z,99.90
2023-03-19T11:48:12.442Z,99.90
2023-03-19T11:50:51.813Z,99.90
2023-03-19T11:53:38.289Z,99.90
2023-03-19T11:56:33.402Z,99.90
2023-03-19T11:59:55.052Z,99.90
2023-03-19T12:02:41.867Z,99.90
2023-03-19T12:06:11.791Z,99.90
2023-03-19T12:09:04.009Z,99.90
2023-03-19T12:11:43.610Z,99.90
2023-03-19T12:14:37.180Z,99.90
2023-03-19T12:17:36.307Z,99.90
2023-03-19T12:20:31.324Z,99.90
2023-03-19T12:23:26.549Z,99.90
2023-03-19T12:26:05.027Z,99.90
2023-03-19T12:28:36.140Z,99.90
2023-03-19T12:31:27.918Z,99.90
2023-03-19T12:34:29.662Z,99.90
2023-03-19T12:37:32.417Z,99.90
2023-03-19T12:40:20.021Z,99.90
2023-03-19T12:42:46.851Z,99.90
2023-03-19T12:45:26.424Z,99.90
2023-03-19T12:48:08.454Z,99.90
2023-03-19T12:50:39.930Z,99.90
2023-03-19T12:53:26.702Z,99.90
2023-03-19T12:56:00.336Z,99.90
2023-03-19T12:58:46.562Z,99.90
2023-03-19T13:01:27.806Z,99.90
2023-03-19T13:04:19.299Z,99.90
2023-03-19T13:06:59.183Z,99.90
2023-03-19T13:09:40.804Z,99.90
2023-03-19T13:12:18.773Z,99.90
2023-03-19T13:15:25.883Z,99.90
2023-03-19T13:18:08.966Z,99.90
2023-03-19T13:20:49.161Z,99.90
2023-03-19T13:23:26.388Z,99.90
2023-03-19T13:25:57.681Z,99.90
2023-03-19T13:28:31.703Z,99.90
2023-03-19T13:31:02.465Z,99.90
2023-03-19T13:33:30.074Z,99.90
2023-03-19T13:35:57.693Z,99.90
2023-03-19T13:38:47.095Z,99.90
2023-03-19T13:41:35.406Z,99.90
2023-03-19T13:45:03.694Z,99.90
2023-03-19T13:47:33.456Z,99.90
2023-03-19T13:50:21.065Z,99.90
2023-03-19T13:52:52.491Z,99.90
2023-03-19T13:55:24.992Z,99.90
2023-03-19T13:58:17.813Z,99.90
2023-03-19T14:00:45.072Z,99.90
2023-03-19T14:03:32.165Z,99.90
2023-03-19T14:06:00.443Z,99.90
2023-03-19T14:08:47.646Z,99.90
2023-03-19T14:11:30.047Z,99.90
2023-03-19T14:14:03.313Z,99.90
2023-03-19T14:16:42.592Z,99.90
2023-03-19T14:19:17.973Z,99.90
2023-03-19T14:21:59.894Z,99.90
2023-03-19T14:25:19.319Z,99.90
2023-03-19T14:27:52.549Z,99.90
2023-03-19T14:30:40.632Z,99.90
2023-03-19T14:33:20.951Z,99.90
2023-03-19T14:35:49.930Z,99.90
2023-03-19T14:38:36.962Z,99.90
2023-03-19T14:41:06.368Z,99.90
2023-03-19T14:43:58.222Z,99.90
2023-03-19T14:47:03.086Z,99.90
2023-03-19T14:50:01.331Z,99.90
2023-03-19T14:52:44.122Z,99.90
2023-03-19T14:55:15.561Z,99.90
2023-03-19T14:57:43.383Z,98.90
2023-03-19T15:00:20.518Z,99.40
2023-03-19T15:02:52.057Z,98.80
2023-03-19T15:05:36.782Z,96.20
2023-03-19T15:08:07.559Z,96.30
2023-03-19T15:11:13.370Z,92.20
2023-03-19T15:14:14.596Z,92.80
2023-03-19T15:17:12.041Z,93.20
2023-03-19T15:19:40.258Z,92.80
2023-03-19T15:22:15.926Z,92.00
2023-03-19T15:24:43.181Z,91.80
2023-03-19T15:27:25.974Z,88.80
2023-03-19T15:29:53.935Z,85.40
2023-03-19T15:32:54.158Z,83.30
2023-03-19T15:35:31.645Z,83.90
2023-03-19T15:38:03.496Z,84.40
2023-03-19T15:40:32.783Z,86.50
2023-03-19T15:43:04.720Z,89.00
2023-03-19T15:45:36.258Z,91.20
2023-03-19T15:48:21.562Z,91.70
2023-03-19T15:50:52.997Z,93.80
2023-03-19T15:53:25.242Z,94.50
2023-03-19T15:55:54.135Z,95.60
2023-03-19T15:58:31.080Z,96.20
2023-03-19T16:01:01.083Z,96.30
2023-03-19T16:03:38.238Z,96.90
2023-03-19T16:06:29.690Z,98.10
2023-03-19T16:09:19.509Z,99.10
2023-03-19T16:11:47.057Z,99.80
2023-03-19T16:14:39.614Z,99.90
2023-03-19T16:17:17.948Z,99.90
2023-03-19T16:19:56.362Z,99.90
2023-03-19T16:22:28.718Z,99.90
2023-03-19T16:24:56.136Z,99.90
2023-03-19T16:27:40.233Z,99.90
2023-03-19T16:30:22.408Z,99.90
2023-03-19T16:33:06.621Z,99.90
2023-03-19T16:35:35.037Z,99.90
2023-03-19T16:38:22.135Z,99.90
2023-03-19T16:41:10.788Z,99.90
2023-03-19T16:43:44.154Z,99.90
2023-03-19T16:46:13.326Z,99.90
2023-03-19T16:48:40.203Z,99.90
2023-03-19T16:51:20.109Z,99.90
2023-03-19T16:53:48.709Z,99.90
2023-03-19T16:56:16.438Z,99.90
2023-03-19T16:58:45.102Z,99.90
2023-03-19T17:01:20.515Z,99.90
2023-03-19T17:03:48.740Z,99.90
2023-03-19T17:06:17.089Z,99.90
2023-03-19T17:08:44.945Z,99.90
2023-03-19T17:11:36.809Z,99.90
2023-03-19T17:14:06.218Z,99.90
2023-03-19T17:16:33.815Z,99.90
2023-03-19T17:19:00.718Z,99.90
2023-03-19T17:21:33.245Z,99.90
2023-03-19T17:24:20.766Z,99.90
2023-03-19T17:26:47.715Z,99.90
2023-03-19T17:29:14.525Z,99.90
2023-03-19T17:31:41.370Z,99.90
2023-03-19T17:34:20.989Z,99.90
2023-03-19T17:36:55.942Z,99.90
2023-03-19T17:39:24.349Z,99.90
2023-03-19T17:41:52.117Z,99.90
2023-03-19T17:44:18.914Z,99.90
2023-03-19T17:46:54.186Z,99.90
2023-03-19T17:49:22.637Z,99.90
2023-03-19T17:51:50.769Z,99.90
2023-03-19T17:54:18.578Z,99.90
2023-03-19T17:56:45.390Z,99.90
2023-03-19T17:59:12.836Z,99.90
2023-03-19T18:01:45.035Z,99.90
2023-03-19T18:04:16.392Z,99.90
2023-03-19T18:06:55.444Z,99.90
2023-03-19T18:09:28.141Z,99.90
2023-03-19T18:11:55.467Z,99.90
2023-03-19T18:14:22.276Z,99.90
2023-03-19T18:16:49.449Z,99.90
2023-03-19T18:19:27.512Z,99.90
2023-03-19T18:21:54.266Z,99.90
2023-03-19T18:24:21.082Z,99.90
2023-03-19T18:26:48.017Z,99.90
2023-03-19T18:29:16.252Z,99.90
2023-03-19T18:31:49.121Z,99.90
2023-03-19T18:34:17.155Z,99.90
2023-03-19T18:36:44.186Z,99.90
2023-03-19T18:39:16.140Z,99.90
2023-03-19T18:41:43.737Z,99.90
2023-03-19T18:44:12.095Z,99.90
2023-03-19T18:46:40.507Z,99.90
2023-03-19T18:49:27.222Z,99.90
2023-03-19T18:52:02.504Z,99.90
2023-03-19T18:54:31.347Z,99.90
2023-03-19T18:57:00.230Z,99.90
2023-03-19T18:59:30.943Z,99.90
2023-03-19T19:02:18.016Z,99.90
2023-03-19T19:04:44.933Z,99.90
2023-03-19T19:07:14.984Z,99.90
2023-03-19T19:09:42.222Z,99.90
2023-03-19T19:12:13.440Z,99.90
2023-03-19T19:14:40.832Z,99.90
2023-03-19T19:17:17.087Z,99.90
2023-03-19T19:19:44.070Z,99.90
2023-03-19T19:22:16.850Z,99.90
2023-03-19T19:24:44.574Z,99.90
2023-03-19T19:27:26.751Z,99.90
2023-03-19T19:29:54.017Z,99.90
2023-03-19T19:32:26.166Z,99.90
2023-03-19T19:34:53.448Z,99.90
2023-03-19T19:37:23.090Z,99.90
2023-03-19T19:39:51.155Z,99.90
2023-03-19T19:42:21.456Z,99.90
2023-03-19T19:44:55.570Z,99.90
2023-03-19T19:47:22.767Z,99.90
2023-03-19T19:49:49.609Z,99.90
2023-03-19T19:52:19.088Z,99.90
2023-03-19T19:54:46.768Z,99.90
2023-03-19T19:57:22.355Z,99.90
2023-03-19T19:59:50.888Z,99.90
2023-03-19T20:02:29.309Z,99.90
2023-03-19T20:04:57.882Z,99.90
2023-03-19T20:07:24.726Z,99.90
2023-03-19T20:09:51.580Z,99.90
2023-03-19T20:12:21.122Z,99.90
2023-03-19T20:14:48.819Z,99.90
2023-03-19T20:17:21.160Z,99.90
2023-03-19T20:19:48.387Z,99.90
2023-03-19T20:22:15.305Z,99.90
2023-03-19T20:24:42.357Z,99.90
2023-03-19T20:27:19.285Z,99.90
2023-03-19T20:29:46.234Z,99.90
2023-03-19T20:32:38.306Z,99.90
2023-03-19T20:35:18.467Z,99.90
2023-03-19T20:37:45.400Z,99.90
2023-03-19T20:40:13.776Z,99.90
2023-03-19T20:42:41.440Z,99.90
2023-03-19T20:45:22.812Z,99.90
2023-03-19T20:47:54.704Z,99.90
2023-03-19T20:50:28.633Z,99.90
2023-03-19T20:53:03.520Z,99.90
2023-03-19T20:55:34.190Z,99.90
2023-03-19T20:58:03.728Z,99.90
2023-03-19T21:00:33.369Z,99.90
2023-03-19T21:03:01.843Z,99.90
2023-03-19T21:05:36.461Z,99.90
2023-03-19T21:08:06.545Z,99.90
2023-03-19T21:10:43.086Z,99.90
2023-03-19T21:13:16.629Z,99.90
2023-03-19T21:15:49.596Z,99.90
2023-03-19T21:18:17.034Z,99.90
2023-03-19T21:20:47.981Z,99.90
2023-03-19T21:23:34.682Z,99.90
2023-03-19T21:26:23.711Z,99.90
2023-03-19T21:29:05.465Z,99.90
2023-03-19T21:31:33.335Z,99.90
2023-03-19T21:34:01.162Z,99.90
2023-03-19T21:36:28.958Z,99.90
2023-03-19T21:38:56.256Z,99.90
2023-03-19T21:41:30.038Z,99.90
2023-03-19T21:44:20.012Z,99.90
2023-03-19T21:46:48.223Z,99.90
2023-03-19T21:49:15.798Z,99.90
2023-03-19T21:51:46.837Z,99.90
2023-03-19T21:54:15.597Z,99.90
2023-03-19T21:56:45.395Z,99.90
2023-03-19T21:59:19.419Z,99.90
2023-03-19T22:01:46.589Z,99.90
2023-03-19T22:04:13.421Z,99.90
2023-03-19T22:06:40.338Z,99.90
2023-03-19T22:09:07.694Z,99.90
2023-03-19T22:11:37.873Z,99.90
2023-03-19T22:14:19.742Z,99.90
2023-03-19T22:16:47.752Z,99.90
2023-03-19T22:19:17.733Z,99.90
2023-03-19T22:21:45.499Z,99.90
2023-03-19T22:24:12.310Z,99.90
2023-03-19T22:26:42.058Z,99.90
2023-03-19T22:29:19.934Z,99.90
2023-03-19T22:31:52.391Z,99.90
2023-03-19T22:34:23.215Z,99.90
2023-03-19T22:36:50.410Z,99.90
2023-03-19T22:39:17.637Z,99.90
2023-03-19T22:41:47.781Z,99.90
2023-03-19T22:44:31.323Z,99.90
2023-03-19T22:47:00.647Z,99.90
2023-03-19T22:49:28.278Z,99.90
2023-03-19T22:51:55.972Z,99.90
2023-03-19T22:54:22.823Z,99.90
2023-03-19T22:56:49.681Z,99.90
2023-03-19T22:59:16.522Z,99.90
2023-03-19T23:01:46.712Z,99.90
2023-03-19T23:04:26.639Z,99.90
2023-03-19T23:06:55.493Z,99.90
2023-03-19T23:09:29.379Z,99.90
2023-03-19T23:11:57.745Z,99.90
2023-03-19T23:14:30.080Z,99.90
2023-03-19T23:17:03.313Z,99.90
2023-03-19T23:19:36.715Z,99.90
2023-03-19T23:22:06.889Z,99.90
2023-03-19T23:24:35.133Z,99.90
2023-03-19T23:27:03.438Z,99.90
2023-03-19T23:29:41.183Z,99.90
2023-03-19T23:32:11.373Z,99.90
2023-03-19T23:34:54.005Z,99.90
2023-03-19T23:37:24.312Z,99.90
2023-03-19T23:39:51.116Z,99.90
2023-03-19T23:42:27.691Z,99.90
2023-03-19T23:44:58.577Z,99.90
2023-03-19T23:47:25.724Z,99.90
2023-03-19T23:49:52.610Z,99.90
2023-03-19T23:52:19.417Z,99.90
2023-03-19T23:54:46.616Z,99.90
2023-03-19T23:57:15.627Z,99.90
2023-03-19T23:59:44.823Z,99.90
